Aviation Digital Data Service (ADDS)

Output produced by METARs form (1406 UTC 23 March 2017)
found at http://www.aviationweather.gov/adds/metars/
 
KPAE 231353Z 12012G17KT 10SM CLR 05/03 A3006 RMK AO2 SLP183 T00500028
KPAE 231120Z 2312/2412 14010KT P6SM SCT014 BKN070 
     TEMPO 2312/2316 BKN014 OVC070 
     FM231900 17010KT P6SM SCT040 BKN080 
     FM240400 14013G20KT P6SM -RA OVC040
       
KAWO 231355Z AUTO 14010KT 10SM OVC036 06/M01 A3010 RMK AO1
KBFI 231353Z 15008KT 10SM BKN080 04/04 A3009 RMK AO2 SLP189 T00440039
KBFI 231120Z 2312/2412 18008KT P6SM SCT030 BKN080 
     TEMPO 2313/2317 BKN030 OVC070 
     FM231900 16006KT P6SM SCT040 BKN080 
     FM240400 13006KT P6SM -RA OVC045
       
KRNT 231353Z 16003KT 10SM SCT075 04/03 A3009 RMK AO2 SLP194 T00440033
KSEA 231353Z 15009KT 10SM SCT075 SCT150 SCT250 05/03 A3008 RMK AO2 SLP194 T00500028
KSEA 231120Z 2312/2418 21010KT P6SM SCT028 BKN070 
     TEMPO 2313/2317 BKN025 OVC070 
     FM231900 17006KT P6SM SCT040 BKN080 
     FM240400 14009KT P6SM -RA OVC040